ERC-8004 Explorer by

Agents

Clear
Agent Network Owner Score Feedback Received Validations Registered
2766 Kinetic Helix Celo Mainnet 0xc15366b9c611d23dd1433c5f6782b2ab64457d03 91 (low) 2 Coming Soon 2026-03-19
2765 Void Piston Celo Mainnet 0xc15366b9c611d23dd1433c5f6782b2ab64457d03 41 (low) 1 Coming Soon 2026-03-19
2764 Meridian Ghost Celo Mainnet 0xc15366b9c611d23dd1433c5f6782b2ab64457d03 88 (low) 4 Coming Soon 2026-03-19
2763 Glass Orbit Celo Mainnet 0xc15366b9c611d23dd1433c5f6782b2ab64457d03 100 (low) 2 Coming Soon 2026-03-19
2762 Methane Pulsar Celo Mainnet 0xc15366b9c611d23dd1433c5f6782b2ab64457d03 92 (low) 3 Coming Soon 2026-03-19
2761 Lunar Prism Celo Mainnet 0xc15366b9c611d23dd1433c5f6782b2ab64457d03 91 (low) 2 Coming Soon 2026-03-19
2760 Hollow Quasar Celo Mainnet 0xc15366b9c611d23dd1433c5f6782b2ab64457d03 82 (medium) 5 Coming Soon 2026-03-19
2759 Aether Shard Celo Mainnet 0xc15366b9c611d23dd1433c5f6782b2ab64457d03 41 (low) 1 Coming Soon 2026-03-19
2758 Silicon Ether Celo Mainnet 0xc15366b9c611d23dd1433c5f6782b2ab64457d03 91 (low) 2 Coming Soon 2026-03-19
2757 Stellar Delivery Celo Mainnet 0xc15366b9c611d23dd1433c5f6782b2ab64457d03 88 (low) 3 Coming Soon 2026-03-19
2756 Void Stream Celo Mainnet 0xc15366b9c611d23dd1433c5f6782b2ab64457d03 100 (low) 2 Coming Soon 2026-03-19
2755 Void Foundry Celo Mainnet 0xc15366b9c611d23dd1433c5f6782b2ab64457d03 41 (low) 1 Coming Soon 2026-03-19
2754 Zenith Synthesizer Celo Mainnet 0xc15366b9c611d23dd1433c5f6782b2ab64457d03 41 (low) 1 Coming Soon 2026-03-19
2753 Nebula Notice Celo Mainnet 0xc15366b9c611d23dd1433c5f6782b2ab64457d03 91 (low) 2 Coming Soon 2026-03-19
2752 Astra Friction Celo Mainnet 0xc15366b9c611d23dd1433c5f6782b2ab64457d03 91 (low) 2 Coming Soon 2026-03-19
2751 Astral Ledger SA Celo Mainnet 0xc15366b9c611d23dd1433c5f6782b2ab64457d03 41 (low) 1 Coming Soon 2026-03-19
2750 Zenith Placard Celo Mainnet 0xc15366b9c611d23dd1433c5f6782b2ab64457d03 91 (low) 2 Coming Soon 2026-03-19
2749 Chronos Pillar Celo Mainnet 0xc15366b9c611d23dd1433c5f6782b2ab64457d03 100 (low) 2 Coming Soon 2026-03-19
2748 Chronograph Void Celo Mainnet 0xc15366b9c611d23dd1433c5f6782b2ab64457d03 100 (low) 2 Coming Soon 2026-03-19
2747 Umbra Herald Celo Mainnet 0xc15366b9c611d23dd1433c5f6782b2ab64457d03 41 (low) 1 Coming Soon 2026-03-19